createdAt,value
2023-02-22T00:00:45.596Z,64.18
2023-02-22T00:03:15.605Z,60.28
2023-02-22T00:05:47.280Z,64.28
2023-02-22T00:08:14.718Z,62.08
2023-02-22T00:10:41.269Z,65.18
2023-02-22T00:13:08.959Z,61.78
2023-02-22T00:15:35.725Z,63.45
2023-02-22T00:18:02.816Z,64.68
2023-02-22T00:20:29.607Z,66.88
2023-02-22T00:22:56.392Z,61.88
2023-02-22T00:25:23.904Z,64.53
2023-02-22T00:27:54.335Z,64.30
2023-02-22T00:30:22.714Z,62.90
2023-02-22T00:32:49.873Z,68.90
2023-02-22T00:35:17.451Z,64.40
2023-02-22T00:37:44.096Z,67.45
2023-02-22T00:40:11.827Z,69.25
2023-02-22T00:42:38.694Z,87.82
2023-02-22T00:45:05.916Z,84.38
2023-02-22T00:47:33.642Z,104.90
2023-02-22T00:50:00.705Z,122.85
2023-02-22T00:52:28.134Z,94.55
2023-02-22T00:54:55.419Z,119.10
2023-02-22T00:57:22.125Z,139.55
2023-02-22T00:59:48.832Z,118.95
2023-02-22T01:02:17.398Z,92.25
2023-02-22T01:04:44.325Z,121.28
2023-02-22T01:07:11.558Z,119.82
2023-02-22T01:09:39.654Z,197.68
2023-02-22T01:12:08.179Z,96.22
2023-02-22T01:14:34.770Z,124.38
2023-02-22T01:17:01.578Z,108.70
2023-02-22T01:19:28.628Z,102.30
2023-02-22T01:21:55.202Z,157.38
2023-02-22T01:24:21.767Z,101.88
2023-02-22T01:26:51.993Z,94.68
2023-02-22T01:29:19.407Z,150.90
2023-02-22T01:31:52.059Z,136.65
2023-02-22T01:34:19.617Z,182.90
2023-02-22T01:36:46.223Z,100.22
2023-02-22T01:39:12.876Z,118.50
2023-02-22T01:41:39.649Z,139.05
2023-02-22T01:44:18.488Z,116.93
2023-02-22T01:46:45.313Z,165.65
2023-02-22T01:49:15.112Z,157.13
2023-02-22T01:51:46.362Z,157.68
2023-02-22T01:54:22.153Z,178.52
2023-02-22T01:56:52.745Z,97.18
2023-02-22T01:59:23.569Z,174.85
2023-02-22T02:01:52.579Z,112.65
2023-02-22T02:04:25.714Z,141.57
2023-02-22T02:06:56.264Z,131.32
2023-02-22T02:09:26.790Z,124.53
2023-02-22T02:11:53.614Z,136.50
2023-02-22T02:14:20.968Z,138.05
2023-02-22T02:16:53.337Z,157.38
2023-02-22T02:19:23.031Z,128.82
2023-02-22T02:22:04.764Z,88.47
2023-02-22T02:24:31.368Z,97.15
2023-02-22T02:27:19.073Z,88.65
2023-02-22T02:29:48.587Z,96.28
2023-02-22T02:32:21.397Z,73.63
2023-02-22T02:34:56.491Z,152.98
2023-02-22T02:37:41.952Z,104.13
2023-02-22T02:40:11.516Z,189.77
2023-02-22T02:42:43.572Z,79.97
2023-02-22T02:45:21.715Z,163.25
2023-02-22T02:47:51.579Z,87.20
2023-02-22T02:50:27.343Z,112.25
2023-02-22T02:52:56.655Z,106.43
2023-02-22T02:55:23.480Z,82.95
2023-02-22T02:57:50.179Z,145.60
2023-02-22T03:00:23.985Z,127.15
2023-02-22T03:02:57.969Z,116.70
2023-02-22T03:05:28.648Z,78.93
2023-02-22T03:08:13.808Z,93.30
2023-02-22T03:10:40.609Z,132.25
2023-02-22T03:13:24.104Z,72.53
2023-02-22T03:16:02.786Z,115.53
2023-02-22T03:18:33.960Z,75.40
2023-02-22T03:21:00.548Z,88.22
2023-02-22T03:23:27.193Z,60.03
2023-02-22T03:25:58.330Z,85.45
2023-02-22T03:28:26.803Z,89.50
2023-02-22T03:30:57.667Z,58.35
2023-02-22T03:33:33.667Z,62.33
2023-02-22T03:36:04.953Z,66.35
2023-02-22T03:38:33.251Z,71.07
2023-02-22T03:41:01.043Z,73.50
2023-02-22T03:43:42.754Z,58.40
2023-02-22T03:48:58.605Z,57.70
2023-02-22T03:51:28.808Z,94.03
2023-02-22T03:53:59.853Z,59.70
2023-02-22T03:56:35.895Z,43.30
2023-02-22T03:59:05.337Z,50.08
2023-02-22T04:01:32.634Z,72.13
2023-02-22T04:04:00.368Z,85.65
2023-02-22T04:06:27.497Z,60.88
2023-02-22T04:08:55.341Z,72.07
2023-02-22T04:11:22.375Z,61.15
2023-02-22T04:13:49.750Z,40.55
2023-02-22T04:16:16.456Z,73.70
2023-02-22T04:18:43.949Z,57.33
2023-02-22T04:21:12.001Z,38.17
2023-02-22T04:23:43.070Z,56.05
2023-02-22T04:26:11.319Z,55.75
2023-02-22T04:28:38.498Z,50.50
2023-02-22T04:31:12.279Z,40.65
2023-02-22T04:33:39.785Z,40.03
2023-02-22T04:36:07.726Z,42.75
2023-02-22T04:38:35.278Z,33.03
2023-02-22T04:41:01.799Z,36.13
2023-02-22T04:43:28.683Z,35.25
2023-02-22T04:46:04.825Z,34.53
2023-02-22T04:48:31.678Z,35.80
2023-02-22T04:50:58.208Z,33.53
2023-02-22T04:53:25.384Z,35.83
2023-02-22T04:55:52.601Z,38.88
2023-02-22T04:58:19.378Z,36.38
2023-02-22T05:00:47.674Z,34.10
2023-02-22T05:03:14.316Z,31.88
2023-02-22T05:05:40.842Z,36.20
2023-02-22T05:08:07.847Z,38.80
2023-02-22T05:10:34.380Z,39.15
2023-02-22T05:13:01.961Z,37.42
2023-02-22T05:15:29.749Z,32.20
2023-02-22T05:17:56.264Z,34.25
2023-02-22T05:20:27.796Z,34.63
2023-02-22T05:22:55.151Z,36.25
2023-02-22T05:25:21.693Z,35.85
2023-02-22T05:27:52.503Z,35.95
2023-02-22T05:30:20.604Z,34.42
2023-02-22T05:32:47.258Z,32.38
2023-02-22T05:35:13.900Z,31.13
2023-02-22T05:37:40.421Z,33.45
2023-02-22T05:40:07.801Z,50.35
2023-02-22T05:42:34.474Z,56.03
2023-02-22T05:45:01.211Z,69.93
2023-02-22T05:47:27.950Z,63.72
2023-02-22T05:49:54.507Z,72.78
2023-02-22T05:52:21.444Z,63.75
2023-02-22T05:54:47.990Z,56.00
2023-02-22T05:57:14.543Z,44.60
2023-02-22T05:59:41.417Z,40.80
2023-02-22T06:02:08.601Z,36.55
2023-02-22T06:04:35.305Z,36.70
2023-02-22T06:07:02.048Z,32.97
2023-02-22T06:09:28.676Z,34.30
2023-02-22T06:11:55.387Z,29.55
2023-02-22T06:14:21.976Z,28.58
2023-02-22T06:16:55.101Z,32.25
2023-02-22T06:19:21.688Z,31.08
2023-02-22T06:21:55.199Z,27.83
2023-02-22T06:24:22.643Z,26.80
2023-02-22T06:26:59.714Z,31.40
2023-02-22T06:29:28.279Z,27.58
2023-02-22T06:31:55.043Z,29.42
2023-02-22T06:34:22.491Z,29.90
2023-02-22T06:36:49.732Z,26.75
2023-02-22T06:39:17.004Z,26.58
2023-02-22T06:41:43.960Z,26.70
2023-02-22T06:44:11.032Z,27.33
2023-02-22T06:46:38.106Z,27.77
2023-02-22T06:49:05.385Z,28.90
2023-02-22T06:51:36.381Z,29.80
2023-02-22T06:54:03.275Z,27.45
2023-02-22T06:56:29.852Z,27.92
2023-02-22T06:58:56.435Z,28.10
2023-02-22T07:01:23.590Z,28.45
2023-02-22T07:03:50.606Z,28.98
2023-02-22T07:06:17.407Z,29.80
2023-02-22T07:08:44.108Z,30.17
2023-02-22T07:11:10.589Z,30.10
2023-02-22T07:13:37.214Z,30.30
2023-02-22T07:16:03.840Z,30.95
2023-02-22T07:18:31.006Z,29.35
2023-02-22T07:20:58.732Z,29.88
2023-02-22T07:23:25.418Z,30.35
2023-02-22T07:25:52.002Z,25.90
2023-02-22T07:28:18.808Z,28.92
2023-02-22T07:30:45.439Z,27.38
2023-02-22T07:33:13.120Z,28.40
2023-02-22T07:35:43.778Z,27.58
2023-02-22T07:38:10.368Z,25.08
2023-02-22T07:40:37.609Z,27.25
2023-02-22T07:43:07.139Z,23.85
2023-02-22T07:45:34.781Z,27.60
2023-02-22T07:48:02.750Z,25.77
2023-02-22T07:50:31.449Z,24.58
2023-02-22T07:52:59.421Z,26.30
2023-02-22T07:55:27.383Z,28.17
2023-02-22T07:57:54.890Z,30.30
2023-02-22T08:00:23.499Z,29.02
2023-02-22T08:02:50.387Z,26.27
2023-02-22T08:05:17.250Z,26.33
2023-02-22T08:07:43.789Z,21.55
2023-02-22T08:10:14.583Z,23.50
2023-02-22T08:12:41.275Z,25.45
2023-02-22T08:15:09.391Z,25.48
2023-02-22T08:17:35.980Z,27.27
2023-02-22T08:20:03.223Z,26.65
2023-02-22T08:22:29.761Z,28.60
2023-02-22T08:24:56.312Z,30.08
2023-02-22T08:27:26.487Z,28.13
2023-02-22T08:29:53.107Z,29.13
2023-02-22T08:32:20.224Z,28.70
2023-02-22T08:34:46.964Z,31.08
2023-02-22T08:37:14.184Z,29.05
2023-02-22T08:39:40.718Z,34.00
2023-02-22T08:42:09.753Z,30.92
2023-02-22T08:44:36.874Z,31.20
2023-02-22T08:47:03.512Z,27.17
2023-02-22T08:49:30.108Z,28.70
2023-02-22T08:51:56.630Z,28.88
2023-02-22T08:54:23.251Z,28.75
2023-02-22T08:56:49.941Z,27.48
2023-02-22T08:59:17.203Z,28.30
2023-02-22T09:01:43.658Z,24.65
2023-02-22T09:04:10.545Z,24.15
2023-02-22T09:06:37.107Z,23.38
2023-02-22T09:09:03.677Z,24.00
2023-02-22T09:11:30.212Z,21.77
2023-02-22T09:13:56.876Z,24.33
2023-02-22T09:16:23.629Z,23.45
2023-02-22T09:18:50.625Z,23.55
2023-02-22T09:21:17.747Z,24.73
2023-02-22T09:23:46.494Z,24.08
2023-02-22T09:26:16.108Z,21.67
2023-02-22T09:28:42.713Z,23.15
2023-02-22T09:31:09.314Z,23.75
2023-02-22T09:33:36.184Z,23.23
2023-02-22T09:36:02.836Z,21.40
2023-02-22T09:38:30.375Z,22.90
2023-02-22T09:41:13.380Z,23.30
2023-02-22T09:43:58.536Z,22.02
2023-02-22T09:48:57.861Z,20.73
2023-02-22T09:51:27.545Z,23.83
2023-02-22T09:53:58.090Z,25.20
2023-02-22T09:56:24.887Z,22.30
2023-02-22T09:58:54.470Z,22.67
2023-02-22T10:01:29.494Z,24.75
2023-02-22T10:06:23.895Z,26.38
2023-02-22T10:08:56.495Z,24.58
2023-02-22T10:11:23.172Z,23.55
2023-02-22T10:13:55.633Z,27.60
2023-02-22T10:16:30.234Z,26.42
2023-02-22T10:19:14.859Z,22.70
2023-02-22T10:22:01.705Z,24.42
2023-02-22T10:24:39.742Z,26.40
2023-02-22T10:27:08.562Z,28.55
2023-02-22T10:29:39.993Z,26.67
2023-02-22T10:32:12.297Z,22.70
2023-02-22T10:34:43.916Z,23.88
2023-02-22T10:37:23.479Z,24.63
2023-02-22T10:39:52.917Z,23.08
2023-02-22T10:42:22.151Z,24.90
2023-02-22T10:44:48.887Z,24.52
2023-02-22T10:47:17.930Z,26.60
2023-02-22T10:49:46.951Z,28.85
2023-02-22T10:52:17.463Z,29.55
2023-02-22T10:54:46.562Z,26.10
2023-02-22T10:57:13.599Z,26.98
2023-02-22T10:59:41.198Z,29.50
2023-02-22T11:02:15.763Z,26.60
2023-02-22T11:05:01.399Z,27.90
2023-02-22T11:07:29.768Z,28.45
2023-02-22T11:09:57.922Z,26.65
2023-02-22T11:12:28.881Z,24.23
2023-02-22T11:14:55.922Z,28.60
2023-02-22T11:17:29.165Z,27.58
2023-02-22T11:19:56.503Z,25.35
2023-02-22T11:22:35.768Z,27.92
2023-02-22T11:25:04.394Z,28.23
2023-02-22T11:27:33.876Z,29.70
2023-02-22T11:30:10.451Z,26.17
2023-02-22T11:32:43.093Z,26.98
2023-02-22T11:35:33.083Z,29.75
2023-02-22T11:38:21.242Z,28.67
2023-02-22T11:41:04.075Z,28.38
2023-02-22T11:43:31.363Z,30.25
2023-02-22T11:46:02.140Z,31.50
2023-02-22T11:48:31.071Z,28.55
2023-02-22T11:50:57.642Z,28.25
2023-02-22T11:53:44.764Z,29.00
2023-02-22T11:56:11.335Z,26.60
2023-02-22T11:58:43.634Z,28.40
2023-02-22T12:01:36.315Z,27.65
2023-02-22T12:04:22.644Z,29.10
2023-02-22T12:06:52.263Z,27.67
2023-02-22T12:09:24.165Z,34.97
2023-02-22T12:12:09.223Z,35.05
2023-02-22T12:14:46.427Z,36.28
2023-02-22T12:17:26.261Z,36.88
2023-02-22T12:20:12.676Z,36.05
2023-02-22T12:22:43.622Z,37.92
2023-02-22T12:25:19.977Z,39.80
2023-02-22T12:27:59.178Z,44.30
2023-02-22T12:30:34.172Z,45.88
2023-02-22T12:33:05.331Z,47.58
2023-02-22T12:35:34.958Z,51.38
2023-02-22T12:38:12.043Z,52.65
2023-02-22T12:40:45.273Z,55.03
2023-02-22T12:43:20.859Z,63.33
2023-02-22T12:45:50.840Z,63.08
2023-02-22T12:48:23.564Z,59.35
2023-02-22T12:50:54.911Z,61.45
2023-02-22T12:53:34.803Z,64.60
2023-02-22T12:56:16.564Z,64.80
2023-02-22T12:59:09.301Z,75.18
2023-02-22T13:01:44.149Z,66.18
2023-02-22T13:06:47.803Z,66.40
2023-02-22T13:09:20.445Z,61.80
2023-02-22T13:11:50.089Z,65.57
2023-02-22T13:14:31.815Z,59.20
2023-02-22T13:17:04.122Z,65.03
2023-02-22T13:19:55.822Z,64.85
2023-02-22T13:22:26.829Z,62.67
2023-02-22T13:25:03.125Z,61.85
2023-02-22T13:27:42.468Z,62.90
2023-02-22T13:30:18.694Z,59.08
2023-02-22T13:32:48.179Z,60.65
2023-02-22T13:35:14.648Z,61.17
2023-02-22T13:38:00.166Z,64.50
2023-02-22T13:40:29.475Z,63.72
2023-02-22T13:42:56.067Z,66.03
2023-02-22T13:45:31.293Z,71.80
2023-02-22T13:48:07.588Z,59.47
2023-02-22T13:51:03.596Z,63.35
2023-02-22T13:53:35.381Z,66.35
2023-02-22T13:56:02.298Z,63.67
2023-02-22T13:58:28.972Z,69.40
2023-02-22T14:00:59.480Z,69.97
2023-02-22T14:03:30.145Z,71.47
2023-02-22T14:06:00.952Z,63.85
2023-02-22T14:08:31.636Z,71.03
2023-02-22T14:10:59.342Z,67.40
2023-02-22T14:13:29.289Z,62.40
2023-02-22T14:16:05.184Z,61.55
2023-02-22T14:18:40.470Z,59.88
2023-02-22T14:21:10.225Z,60.08
2023-02-22T14:23:42.447Z,61.33
2023-02-22T14:26:27.863Z,57.60
2023-02-22T14:28:57.063Z,55.97
2023-02-22T14:31:36.098Z,55.42
2023-02-22T14:34:33.605Z,57.22
2023-02-22T14:37:05.296Z,59.10
2023-02-22T14:39:38.586Z,56.95
2023-02-22T14:42:12.967Z,54.78
2023-02-22T14:44:49.157Z,56.05
2023-02-22T14:47:20.326Z,49.15
2023-02-22T14:49:49.501Z,47.88
2023-02-22T14:52:21.391Z,44.55
2023-02-22T14:54:52.612Z,46.45
2023-02-22T14:57:24.515Z,42.50
2023-02-22T14:59:51.062Z,46.17
2023-02-22T15:02:18.714Z,46.95
2023-02-22T15:04:51.811Z,47.53
2023-02-22T15:07:27.658Z,44.05
2023-02-22T15:10:26.328Z,49.05
2023-02-22T15:13:09.744Z,46.85
2023-02-22T15:15:49.087Z,47.00
2023-02-22T15:18:24.811Z,48.22
2023-02-22T15:20:56.370Z,44.25
2023-02-22T15:23:30.466Z,42.47
2023-02-22T15:25:58.041Z,43.13
2023-02-22T15:28:26.411Z,50.00
2023-02-22T15:31:13.138Z,45.80
2023-02-22T15:33:40.224Z,43.85
2023-02-22T15:36:12.880Z,47.65
2023-02-22T15:38:39.518Z,45.78
2023-02-22T15:41:08.427Z,45.25
2023-02-22T15:43:34.999Z,42.80
2023-02-22T15:46:01.991Z,45.45
2023-02-22T15:48:31.667Z,46.42
2023-02-22T15:51:00.356Z,43.22
2023-02-22T15:53:28.765Z,47.40
2023-02-22T15:55:57.254Z,49.35
2023-02-22T15:58:28.793Z,40.90
2023-02-22T16:01:06.814Z,40.28
2023-02-22T16:03:53.653Z,43.13
2023-02-22T16:06:23.152Z,43.08
2023-02-22T16:08:55.118Z,44.03
2023-02-22T16:11:39.805Z,40.28
2023-02-22T16:14:15.511Z,44.50
2023-02-22T16:16:43.390Z,41.28
2023-02-22T16:19:24.276Z,42.85
2023-02-22T16:21:53.524Z,42.10
2023-02-22T16:24:27.486Z,45.22
2023-02-22T16:27:04.554Z,42.90
2023-02-22T16:29:31.358Z,44.22
2023-02-22T16:31:57.968Z,40.95
2023-02-22T16:34:24.637Z,42.58
2023-02-22T16:36:51.675Z,43.20
2023-02-22T16:39:19.145Z,41.78
2023-02-22T16:41:45.936Z,41.22
2023-02-22T16:44:13.177Z,42.38
2023-02-22T16:46:41.851Z,43.55
2023-02-22T16:49:12.374Z,42.38
2023-02-22T16:51:45.621Z,38.47
2023-02-22T16:54:14.026Z,45.63
2023-02-22T16:56:40.787Z,40.75
2023-02-22T16:59:12.184Z,41.95
2023-02-22T17:01:38.877Z,39.08
2023-02-22T17:04:19.992Z,36.38
2023-02-22T17:06:46.990Z,41.13
2023-02-22T17:09:13.594Z,43.88
2023-02-22T17:11:40.191Z,38.72
2023-02-22T17:14:06.937Z,42.45
2023-02-22T17:16:33.575Z,42.05
2023-02-22T17:19:00.267Z,36.92
2023-02-22T17:21:26.933Z,41.20
2023-02-22T17:23:53.420Z,40.88
2023-02-22T17:26:20.037Z,40.40
2023-02-22T17:28:46.662Z,41.88
2023-02-22T17:31:19.130Z,40.25
2023-02-22T17:33:45.938Z,39.80
2023-02-22T17:36:13.446Z,37.63
2023-02-22T17:38:42.016Z,36.83
2023-02-22T17:41:08.759Z,37.35
2023-02-22T17:43:35.499Z,36.08
2023-02-22T17:46:08.021Z,39.80
2023-02-22T17:48:35.090Z,39.58
2023-02-22T17:51:05.093Z,43.63
2023-02-22T17:53:31.783Z,37.00
2023-02-22T17:55:58.496Z,35.83
2023-02-22T17:58:29.240Z,41.65
2023-02-22T18:00:59.208Z,41.72
2023-02-22T18:03:26.534Z,39.83
2023-02-22T18:05:56.259Z,40.67
2023-02-22T18:08:24.593Z,39.83
2023-02-22T18:10:56.168Z,44.45
2023-02-22T18:13:24.262Z,43.65
2023-02-22T18:15:50.986Z,38.58
2023-02-22T18:18:17.950Z,37.35
2023-02-22T18:20:46.606Z,41.58
2023-02-22T18:23:17.323Z,39.85
2023-02-22T18:26:07.682Z,38.13
2023-02-22T18:28:35.731Z,37.15
2023-02-22T18:31:06.457Z,40.50
2023-02-22T18:33:35.768Z,41.25
2023-02-22T18:36:05.444Z,36.67
2023-02-22T18:38:32.155Z,37.53
2023-02-22T18:40:59.847Z,41.45
2023-02-22T18:43:38.266Z,35.90
2023-02-22T18:46:07.699Z,41.22
2023-02-22T18:48:34.493Z,39.33
2023-02-22T18:51:01.973Z,37.90
2023-02-22T18:53:29.234Z,41.83
2023-02-22T18:55:55.891Z,40.75
2023-02-22T18:58:22.754Z,40.03
2023-02-22T19:00:49.421Z,39.42
2023-02-22T19:03:15.917Z,37.58
2023-02-22T19:05:42.523Z,38.13
2023-02-22T19:08:11.456Z,39.28
2023-02-22T19:10:38.796Z,46.47
2023-02-22T19:13:10.809Z,40.97
2023-02-22T19:15:38.312Z,38.78
2023-02-22T19:18:05.054Z,35.92
2023-02-22T19:20:42.163Z,42.80
2023-02-22T19:23:46.251Z,40.63
2023-02-22T19:26:20.880Z,39.60
2023-02-22T19:28:48.184Z,38.67
2023-02-22T19:31:19.684Z,39.17
2023-02-22T19:33:47.943Z,38.47
2023-02-22T19:36:15.190Z,42.88
2023-02-22T19:38:42.001Z,40.90
2023-02-22T19:41:10.341Z,39.85
2023-02-22T19:43:37.768Z,39.20
2023-02-22T19:46:07.741Z,37.95
2023-02-22T19:48:34.749Z,41.30
2023-02-22T19:51:08.660Z,43.83
2023-02-22T19:53:36.176Z,38.88
2023-02-22T19:56:13.507Z,40.08
2023-02-22T19:58:40.731Z,41.70
2023-02-22T20:01:13.335Z,42.47
2023-02-22T20:03:41.762Z,45.05
2023-02-22T20:06:11.625Z,38.67
2023-02-22T20:08:42.158Z,37.50
2023-02-22T20:11:10.564Z,40.70
2023-02-22T20:13:37.850Z,40.10
2023-02-22T20:16:05.108Z,41.08
2023-02-22T20:18:31.731Z,41.67
2023-02-22T20:20:58.368Z,41.05
2023-02-22T20:23:24.915Z,40.00
2023-02-22T20:25:53.134Z,37.05
2023-02-22T20:28:19.753Z,43.80
2023-02-22T20:30:47.364Z,43.10
2023-02-22T20:33:14.258Z,41.53
2023-02-22T20:35:40.881Z,39.80
2023-02-22T20:38:07.846Z,39.67
2023-02-22T20:40:34.404Z,38.97
2023-02-22T20:43:00.893Z,43.78
2023-02-22T20:45:27.592Z,42.92
2023-02-22T20:47:54.607Z,41.20
2023-02-22T20:50:21.218Z,37.08
2023-02-22T20:52:47.856Z,38.22
2023-02-22T20:55:14.847Z,42.17
2023-02-22T20:57:41.732Z,39.70
2023-02-22T21:00:10.606Z,42.20
2023-02-22T21:02:38.465Z,40.13
2023-02-22T21:05:07.761Z,41.58
2023-02-22T21:07:34.234Z,42.15
2023-02-22T21:10:02.711Z,38.95
2023-02-22T21:12:29.209Z,44.25
2023-02-22T21:14:57.028Z,38.20
2023-02-22T21:17:28.812Z,34.83
2023-02-22T21:19:56.284Z,38.97
2023-02-22T21:22:24.386Z,37.20
2023-02-22T21:24:51.487Z,35.35
2023-02-22T21:27:18.189Z,38.38
2023-02-22T21:29:44.778Z,37.55
2023-02-22T21:32:12.758Z,39.92
2023-02-22T21:34:39.845Z,38.85
2023-02-22T21:37:08.333Z,34.92
2023-02-22T21:39:35.489Z,33.95
2023-02-22T21:42:02.571Z,34.88
2023-02-22T21:44:29.825Z,35.20
2023-02-22T21:46:56.409Z,38.70
2023-02-22T21:49:23.335Z,40.58
2023-02-22T21:51:50.361Z,37.45
2023-02-22T21:54:17.044Z,39.25
2023-02-22T21:56:43.791Z,39.30
2023-02-22T21:59:11.929Z,40.58
2023-02-22T22:01:42.806Z,35.65
2023-02-22T22:04:09.694Z,41.78
2023-02-22T22:06:36.152Z,34.70
2023-02-22T22:09:18.177Z,36.50
2023-02-22T22:11:49.819Z,32.88
2023-02-22T22:14:20.231Z,35.58
2023-02-22T22:16:47.972Z,35.28
2023-02-22T22:19:14.686Z,35.03
2023-02-22T22:21:41.572Z,33.47
2023-02-22T22:24:08.997Z,35.75
2023-02-22T22:26:36.399Z,36.17
2023-02-22T22:29:04.592Z,35.45
2023-02-22T22:31:31.750Z,34.83
2023-02-22T22:33:58.486Z,34.13
2023-02-22T22:36:27.138Z,35.88
2023-02-22T22:38:57.593Z,40.17
2023-02-22T22:41:24.844Z,40.15
2023-02-22T22:43:54.107Z,36.72
2023-02-22T22:46:21.683Z,36.15
2023-02-22T22:48:48.444Z,35.15
2023-02-22T22:51:16.691Z,38.40
2023-02-22T22:53:44.363Z,37.72
2023-02-22T22:56:16.396Z,37.53
2023-02-22T22:58:53.102Z,38.53
2023-02-22T23:01:26.773Z,36.65
2023-02-22T23:04:00.573Z,38.88
2023-02-22T23:09:08.187Z,43.35
2023-02-22T23:11:34.770Z,37.55
2023-02-22T23:14:02.661Z,37.72
2023-02-22T23:16:29.205Z,39.17
2023-02-22T23:18:55.729Z,38.03
2023-02-22T23:21:24.463Z,38.72
2023-02-22T23:23:54.644Z,37.10
2023-02-22T23:26:21.161Z,36.28
2023-02-22T23:28:48.334Z,38.47
2023-02-22T23:31:16.725Z,40.00
2023-02-22T23:33:44.291Z,37.13
2023-02-22T23:36:12.499Z,36.20
2023-02-22T23:38:39.937Z,43.25
2023-02-22T23:41:09.080Z,38.78
2023-02-22T23:43:40.523Z,39.20
2023-02-22T23:46:10.882Z,40.75
2023-02-22T23:48:38.660Z,37.38
2023-02-22T23:51:09.457Z,35.60
2023-02-22T23:53:39.500Z,44.15
2023-02-22T23:56:10.103Z,43.38
2023-02-22T23:58:37.998Z,37.13
